Time;durP1;ratioP1;P1;durP2;ratioP2;P2;SDS_P1;SDS_P2;PMS_P1;PMS_P2;Temp;Humidity;BMP_temperature;BMP_pressure;BME280_temperature;BME280_humidity;BME280_pressure;Samples;Min_cycle;Max_cycle;Signal;HPM_P1;HPM_P2
2021/06/20 00:00:13;;;;;;;15.40;7.32;;;;;;;;;;3580932;40;20145;-55
2021/06/20 00:02:39;;;;;;;14.15;7.25;;;;;;;;;;3582387;40;20037;-53
2021/06/20 00:05:08;;;;;;;16.42;6.93;;;;;;;;;;3582641;40;20092;-53
2021/06/20 00:07:33;;;;;;;14.25;7.80;;;;;;;;;;3583299;40;20265;-53
2021/06/20 00:10:01;;;;;;;15.35;8.02;;;;;;;;;;3581013;40;20148;-55
2021/06/20 00:12:26;;;;;;;12.65;7.00;;;;;;;;;;3582024;40;20092;-52
2021/06/20 00:14:51;;;;;;;13.93;7.22;;;;;;;;;;3580648;40;20044;-54
2021/06/20 00:17:17;;;;;;;13.18;7.07;;;;;;;;;;3582660;40;20127;-55
2021/06/20 00:19:42;;;;;;;11.43;7.43;;;;;;;;;;3581795;40;20036;-55
2021/06/20 00:22:08;;;;;;;13.48;7.70;;;;;;;;;;3580744;40;20079;-54
2021/06/20 00:24:33;;;;;;;17.98;6.85;;;;;;;;;;3581684;40;20120;-54
2021/06/20 00:26:59;;;;;;;12.13;7.80;;;;;;;;;;3581265;40;20057;-55
2021/06/20 00:29:24;;;;;;;11.55;7.15;;;;;;;;;;3573527;40;20033;-55
2021/06/20 00:31:50;;;;;;;10.35;8.07;;;;;;;;;;3581293;40;20328;-55
2021/06/20 00:34:15;;;;;;;20.80;7.35;;;;;;;;;;3582506;40;20379;-55
2021/06/20 00:36:40;;;;;;;17.17;7.65;;;;;;;;;;3580252;40;20042;-56
2021/06/20 00:39:06;;;;;;;13.85;7.90;;;;;;;;;;3582559;40;20032;-55
2021/06/20 00:41:31;;;;;;;11.43;7.93;;;;;;;;;;3580509;40;20029;-53
2021/06/20 00:44:02;;;;;;;11.93;8.38;;;;;;;;;;3581020;40;20037;-53
2021/06/20 00:46:27;;;;;;;14.27;7.65;;;;;;;;;;3581951;40;20530;-52
2021/06/20 00:48:52;;;;;;;16.40;7.13;;;;;;;;;;3581420;40;20031;-54
2021/06/20 00:51:18;;;;;;;11.57;7.63;;;;;;;;;;3581244;40;20566;-53
2021/06/20 00:53:44;;;;;;;12.27;8.15;;;;;;;;;;3580405;40;20088;-53
2021/06/20 00:56:11;;;;;;;13.23;8.32;;;;;;;;;;3573679;40;20044;-53
2021/06/20 00:58:37;;;;;;;10.43;7.47;;;;;;;;;;3581980;40;20036;-55
2021/06/20 01:01:02;;;;;;;9.13;7.47;;;;;;;;;;3581068;40;20085;-52
2021/06/20 01:03:28;;;;;;;14.85;8.98;;;;;;;;;;3581815;40;20056;-54
2021/06/20 01:05:53;;;;;;;25.05;8.25;;;;;;;;;;3582442;40;20077;-55
2021/06/20 01:08:19;;;;;;;14.82;8.40;;;;;;;;;;3579717;40;20508;-52
2021/06/20 01:10:44;;;;;;;12.73;8.63;;;;;;;;;;3580692;40;20048;-53
2021/06/20 01:13:14;;;;;;;14.20;8.98;;;;;;;;;;3580773;40;20041;-54
2021/06/20 01:15:41;;;;;;;13.00;8.48;;;;;;;;;;3581331;40;20048;-52
2021/06/20 01:18:08;;;;;;;11.27;8.25;;;;;;;;;;3580256;40;20033;-55
2021/06/20 01:20:34;;;;;;;25.75;8.10;;;;;;;;;;3581290;40;20029;-54
2021/06/20 01:22:59;;;;;;;14.05;8.82;;;;;;;;;;3581757;40;20118;-55
2021/06/20 01:25:28;;;;;;;11.73;7.72;;;;;;;;;;3580174;40;20391;-54
2021/06/20 01:27:59;;;;;;;22.27;7.60;;;;;;;;;;3581763;40;20037;-53
2021/06/20 01:30:27;;;;;;;16.33;7.38;;;;;;;;;;3580342;40;20580;-51
2021/06/20 01:32:54;;;;;;;16.38;8.07;;;;;;;;;;3580026;40;20060;-55
2021/06/20 01:35:20;;;;;;;12.68;7.78;;;;;;;;;;3579790;40;20037;-55
2021/06/20 01:37:47;;;;;;;21.08;8.50;;;;;;;;;;3580231;40;20146;-54
2021/06/20 01:40:15;;;;;;;26.65;8.15;;;;;;;;;;3581268;40;20265;-51
2021/06/20 01:42:41;;;;;;;14.82;7.72;;;;;;;;;;3581140;40;20454;-55
2021/06/20 01:45:08;;;;;;;15.27;8.18;;;;;;;;;;3580595;40;20037;-54
2021/06/20 01:47:35;;;;;;;10.82;7.03;;;;;;;;;;3579867;40;20040;-53
2021/06/20 01:50:03;;;;;;;14.38;7.25;;;;;;;;;;3574002;40;20449;-52
2021/06/20 01:52:29;;;;;;;18.35;8.00;;;;;;;;;;3581085;40;20041;-54
2021/06/20 01:54:55;;;;;;;17.92;8.75;;;;;;;;;;3581507;40;20037;-56
2021/06/20 01:57:23;;;;;;;28.40;8.27;;;;;;;;;;3580954;40;20059;-55
2021/06/20 01:59:53;;;;;;;14.77;7.75;;;;;;;;;;3580259;40;20107;-53
2021/06/20 02:02:20;;;;;;;14.25;7.50;;;;;;;;;;3578434;40;20088;-54
2021/06/20 02:04:46;;;;;;;24.58;7.43;;;;;;;;;;3580119;40;20508;-53
2021/06/20 02:07:12;;;;;;;14.93;8.15;;;;;;;;;;3580555;40;20056;-54
2021/06/20 02:09:39;;;;;;;17.98;8.02;;;;;;;;;;3582078;40;20046;-55
2021/06/20 02:12:07;;;;;;;16.45;7.80;;;;;;;;;;3579565;40;20052;-55
2021/06/20 02:14:33;;;;;;;19.23;8.20;;;;;;;;;;3581491;40;20056;-54
2021/06/20 02:16:59;;;;;;;16.73;9.13;;;;;;;;;;3580681;40;20041;-52
2021/06/20 02:19:25;;;;;;;19.70;7.60;;;;;;;;;;3580800;40;20048;-51
2021/06/20 02:21:50;;;;;;;12.52;7.13;;;;;;;;;;3579409;40;20057;-53
2021/06/20 02:24:16;;;;;;;19.92;7.88;;;;;;;;;;3580066;40;20040;-56
2021/06/20 02:26:41;;;;;;;20.63;8.15;;;;;;;;;;3572953;40;20044;-55
2021/06/20 02:29:07;;;;;;;16.13;6.75;;;;;;;;;;3580537;40;20033;-55
2021/06/20 02:31:32;;;;;;;18.35;7.35;;;;;;;;;;3580969;40;20122;-57
2021/06/20 02:33:58;;;;;;;19.17;7.32;;;;;;;;;;3572228;40;20081;-53
2021/06/20 02:36:23;;;;;;;14.70;6.95;;;;;;;;;;3580915;40;20048;-52
2021/06/20 02:38:49;;;;;;;21.38;6.43;;;;;;;;;;3579531;40;20032;-54
2021/06/20 02:41:14;;;;;;;15.18;6.40;;;;;;;;;;3580036;40;20537;-53
2021/06/20 02:43:40;;;;;;;15.32;6.47;;;;;;;;;;3576198;40;20033;-54
2021/06/20 02:46:05;;;;;;;14.15;6.43;;;;;;;;;;3580916;40;20134;-53
2021/06/20 02:48:31;;;;;;;17.25;5.90;;;;;;;;;;3581669;40;20036;-56
2021/06/20 02:50:56;;;;;;;16.25;6.22;;;;;;;;;;3580952;40;20438;-54
2021/06/20 02:53:21;;;;;;;13.75;6.45;;;;;;;;;;3581006;40;20032;-55
2021/06/20 02:55:47;;;;;;;12.18;6.47;;;;;;;;;;3581422;40;20033;-54
2021/06/20 02:58:12;;;;;;;18.05;5.65;;;;;;;;;;3580091;40;20049;-55
2021/06/20 03:00:38;;;;;;;18.30;6.25;;;;;;;;;;3579486;40;20068;-55
2021/06/20 03:03:03;;;;;;;12.20;6.63;;;;;;;;;;3581017;40;20048;-56
2021/06/20 03:05:29;;;;;;;13.90;6.25;;;;;;;;;;3580528;40;20040;-56
2021/06/20 03:07:54;;;;;;;23.45;7.22;;;;;;;;;;3580963;40;20032;-56
2021/06/20 03:10:20;;;;;;;17.48;5.97;;;;;;;;;;3581528;40;20044;-54
2021/06/20 03:12:45;;;;;;;13.73;5.88;;;;;;;;;;3578384;40;20044;-55
2021/06/20 03:15:11;;;;;;;18.90;6.15;;;;;;;;;;3580511;40;20377;-54
2021/06/20 03:17:37;;;;;;;19.13;6.35;;;;;;;;;;3580839;40;20029;-56
2021/06/20 03:20:05;;;;;;;18.15;5.53;;;;;;;;;;3582063;40;20496;-54
2021/06/20 03:22:30;;;;;;;13.07;5.65;;;;;;;;;;3579905;40;20035;-52
2021/06/20 03:24:56;;;;;;;16.48;7.05;;;;;;;;;;3571997;40;20299;-51
2021/06/20 03:27:22;;;;;;;11.38;5.70;;;;;;;;;;3579119;40;20032;-55
2021/06/20 03:29:48;;;;;;;14.75;6.55;;;;;;;;;;3581353;40;20065;-55
2021/06/20 03:32:16;;;;;;;18.30;6.50;;;;;;;;;;3580586;40;20025;-55
2021/06/20 03:34:42;;;;;;;30.52;5.80;;;;;;;;;;3579011;40;20056;-52
2021/06/20 03:37:07;;;;;;;13.40;4.75;;;;;;;;;;3572075;40;20260;-53
2021/06/20 03:39:34;;;;;;;12.05;5.07;;;;;;;;;;3578434;40;20060;-56
2021/06/20 03:41:59;;;;;;;12.23;4.50;;;;;;;;;;3581694;40;20045;-53
2021/06/20 03:44:25;;;;;;;13.75;4.80;;;;;;;;;;3579357;40;20048;-54
2021/06/20 03:46:50;;;;;;;9.95;4.70;;;;;;;;;;3570595;40;20137;-53
2021/06/20 03:49:16;;;;;;;13.40;4.05;;;;;;;;;;3581221;40;20134;-55
2021/06/20 03:51:41;;;;;;;10.68;4.97;;;;;;;;;;3580742;40;20073;-55
2021/06/20 03:54:07;;;;;;;10.63;4.95;;;;;;;;;;3579504;40;20031;-52
2021/06/20 03:56:33;;;;;;;11.75;4.43;;;;;;;;;;3582307;40;20414;-55
2021/06/20 03:58:58;;;;;;;12.73;4.32;;;;;;;;;;3579940;40;20033;-55
2021/06/20 04:01:24;;;;;;;12.93;4.38;;;;;;;;;;3579469;40;20386;-56
2021/06/20 04:03:49;;;;;;;6.57;4.10;;;;;;;;;;3579211;40;20073;-54
2021/06/20 04:06:15;;;;;;;7.32;4.18;;;;;;;;;;3579519;40;20040;-52
2021/06/20 04:08:40;;;;;;;11.93;4.50;;;;;;;;;;3579675;40;20048;-55
2021/06/20 04:11:07;;;;;;;12.88;4.22;;;;;;;;;;3581645;40;20044;-54
2021/06/20 04:13:32;;;;;;;12.35;4.00;;;;;;;;;;3580683;40;20085;-52
2021/06/20 04:15:57;;;;;;;12.48;4.85;;;;;;;;;;3579460;40;20567;-55
2021/06/20 04:18:23;;;;;;;10.00;4.78;;;;;;;;;;3580219;40;20470;-54
2021/06/20 04:20:48;;;;;;;9.90;4.05;;;;;;;;;;3579232;40;20329;-54
2021/06/20 04:23:14;;;;;;;7.47;4.28;;;;;;;;;;3580904;40;20091;-57
2021/06/20 04:25:39;;;;;;;12.82;4.38;;;;;;;;;;3581234;40;20383;-55
2021/06/20 04:28:05;;;;;;;9.00;4.15;;;;;;;;;;3580865;40;20052;-55
2021/06/20 04:30:30;;;;;;;11.63;4.57;;;;;;;;;;3573603;40;20049;-56
2021/06/20 04:32:56;;;;;;;8.10;4.25;;;;;;;;;;3582458;40;20068;-55
2021/06/20 04:35:22;;;;;;;7.47;3.33;;;;;;;;;;3581788;40;20434;-55
2021/06/20 04:37:49;;;;;;;11.35;4.28;;;;;;;;;;3580690;40;20052;-55
2021/06/20 04:40:19;;;;;;;10.57;3.50;;;;;;;;;;3583344;40;20036;-56
2021/06/20 04:42:47;;;;;;;10.90;3.70;;;;;;;;;;3583409;40;20043;-54
2021/06/20 04:45:14;;;;;;;11.63;3.63;;;;;;;;;;3582548;40;20033;-55
2021/06/20 04:47:41;;;;;;;8.57;3.88;;;;;;;;;;3581928;40;20044;-55
2021/06/20 04:50:07;;;;;;;7.18;3.75;;;;;;;;;;3581561;40;20029;-54
2021/06/20 04:52:33;;;;;;;12.32;3.17;;;;;;;;;;3582329;40;20041;-55
2021/06/20 04:54:58;;;;;;;8.98;3.67;;;;;;;;;;3572819;40;20048;-55
2021/06/20 04:57:28;;;;;;;8.75;4.10;;;;;;;;;;3581814;40;20037;-55
2021/06/20 04:59:57;;;;;;;8.75;4.00;;;;;;;;;;3581033;40;20032;-55
2021/06/20 05:02:23;;;;;;;9.77;4.20;;;;;;;;;;3573235;40;20040;-55
2021/06/20 05:04:49;;;;;;;20.30;3.75;;;;;;;;;;3582710;40;20037;-55
2021/06/20 05:07:15;;;;;;;9.32;4.45;;;;;;;;;;3581876;40;20040;-55
2021/06/20 05:09:41;;;;;;;16.58;6.05;;;;;;;;;;3582623;40;20048;-53
2021/06/20 05:12:08;;;;;;;10.32;3.95;;;;;;;;;;3581020;40;20036;-55
2021/06/20 05:14:35;;;;;;;7.97;3.45;;;;;;;;;;3581577;40;20029;-53
2021/06/20 05:17:01;;;;;;;9.57;3.97;;;;;;;;;;3581549;40;20044;-55
2021/06/20 05:19:27;;;;;;;6.18;3.40;;;;;;;;;;3581960;40;20344;-55
2021/06/20 05:21:53;;;;;;;12.63;4.32;;;;;;;;;;3583012;40;20063;-55
2021/06/20 05:24:19;;;;;;;7.15;4.00;;;;;;;;;;3583180;40;20368;-54
2021/06/20 05:26:44;;;;;;;6.68;3.72;;;;;;;;;;3581346;40;20044;-54
2021/06/20 05:29:10;;;;;;;10.00;3.40;;;;;;;;;;3580055;40;20035;-55
2021/06/20 05:31:35;;;;;;;10.50;4.00;;;;;;;;;;3581544;40;20037;-55
2021/06/20 05:34:01;;;;;;;7.93;3.83;;;;;;;;;;3581937;40;20051;-56
2021/06/20 05:36:26;;;;;;;9.52;3.60;;;;;;;;;;3583128;40;20063;-53
2021/06/20 05:38:52;;;;;;;15.30;4.03;;;;;;;;;;3581992;40;20032;-53
2021/06/20 05:41:17;;;;;;;7.78;4.10;;;;;;;;;;3582329;40;20044;-54
2021/06/20 05:43:43;;;;;;;9.30;3.22;;;;;;;;;;3581268;40;20076;-54
2021/06/20 05:46:08;;;;;;;21.83;4.25;;;;;;;;;;3581336;40;20297;-53
2021/06/20 05:48:34;;;;;;;8.75;4.10;;;;;;;;;;3581647;40;20031;-54
2021/06/20 05:51:00;;;;;;;8.80;3.15;;;;;;;;;;3581864;40;20122;-53
2021/06/20 05:53:25;;;;;;;9.45;3.38;;;;;;;;;;3581343;40;20029;-56
2021/06/20 05:55:51;;;;;;;9.32;4.28;;;;;;;;;;3582236;40;20309;-55
2021/06/20 05:58:16;;;;;;;6.07;3.47;;;;;;;;;;3579445;40;20049;-57
2021/06/20 06:00:42;;;;;;;12.38;3.70;;;;;;;;;;3576713;40;20048;-54
2021/06/20 06:03:07;;;;;;;8.38;4.10;;;;;;;;;;3581442;40;20037;-56
2021/06/20 06:05:33;;;;;;;13.25;4.30;;;;;;;;;;3581919;40;20032;-54
2021/06/20 06:07:58;;;;;;;7.63;3.45;;;;;;;;;;3580634;40;20036;-54
2021/06/20 06:10:25;;;;;;;14.57;3.92;;;;;;;;;;3580092;40;20865;-53
2021/06/20 06:12:51;;;;;;;7.00;3.58;;;;;;;;;;3581467;40;20415;-53
2021/06/20 06:15:17;;;;;;;6.10;3.13;;;;;;;;;;3580621;40;20037;-57
2021/06/20 06:17:43;;;;;;;10.63;3.85;;;;;;;;;;3583403;40;20032;-51
2021/06/20 06:20:09;;;;;;;11.13;3.55;;;;;;;;;;3583032;40;20044;-55
2021/06/20 06:22:35;;;;;;;7.47;3.70;;;;;;;;;;3581108;40;20033;-54
2021/06/20 06:25:01;;;;;;;7.80;3.75;;;;;;;;;;3581092;40;20041;-56
2021/06/20 06:27:26;;;;;;;9.43;3.83;;;;;;;;;;3582319;40;20121;-56
2021/06/20 06:29:52;;;;;;;6.45;3.47;;;;;;;;;;3581936;40;20133;-56
2021/06/20 06:32:17;;;;;;;10.18;3.80;;;;;;;;;;3581448;40;20044;-56
2021/06/20 06:34:43;;;;;;;7.95;4.38;;;;;;;;;;3580517;40;20267;-55
2021/06/20 06:37:08;;;;;;;7.20;3.55;;;;;;;;;;3581020;40;20138;-52
2021/06/20 06:39:34;;;;;;;7.40;3.58;;;;;;;;;;3571501;40;20033;-54
2021/06/20 06:42:00;;;;;;;7.53;3.88;;;;;;;;;;3579838;40;20055;-53
2021/06/20 06:44:26;;;;;;;6.72;3.50;;;;;;;;;;3580846;40;20076;-55
2021/06/20 06:46:53;;;;;;;10.55;4.10;;;;;;;;;;3580974;40;20022;-52
2021/06/20 06:49:19;;;;;;;6.45;3.72;;;;;;;;;;3581833;40;20351;-56
2021/06/20 06:51:44;;;;;;;10.80;4.53;;;;;;;;;;3578840;40;20163;-52
2021/06/20 06:54:09;;;;;;;9.40;4.68;;;;;;;;;;3574674;40;20051;-52
2021/06/20 06:56:35;;;;;;;7.70;4.07;;;;;;;;;;3580931;40;20047;-52
2021/06/20 06:59:01;;;;;;;6.55;4.07;;;;;;;;;;3580542;40;20372;-57
2021/06/20 07:01:27;;;;;;;10.23;4.03;;;;;;;;;;3580133;40;20414;-54
2021/06/20 07:03:53;;;;;;;7.80;4.05;;;;;;;;;;3581892;40;20365;-56
2021/06/20 07:06:22;;;;;;;11.95;4.38;;;;;;;;;;3580257;40;20045;-55
2021/06/20 07:08:47;;;;;;;8.35;3.67;;;;;;;;;;3579236;40;20032;-54
2021/06/20 07:11:13;;;;;;;6.28;4.45;;;;;;;;;;3581503;40;20031;-55
2021/06/20 07:13:39;;;;;;;8.35;4.70;;;;;;;;;;3581056;40;20048;-54
2021/06/20 07:16:05;;;;;;;7.38;4.45;;;;;;;;;;3580181;40;20057;-54
2021/06/20 07:18:30;;;;;;;7.28;3.78;;;;;;;;;;3579529;40;20043;-55
2021/06/20 07:20:57;;;;;;;7.13;4.13;;;;;;;;;;3581126;40;20037;-55
2021/06/20 07:23:22;;;;;;;8.60;5.25;;;;;;;;;;3579588;40;20049;-53
2021/06/20 07:25:47;;;;;;;6.63;4.07;;;;;;;;;;3581057;40;20043;-54
2021/06/20 07:28:13;;;;;;;7.80;3.85;;;;;;;;;;3579462;40;20127;-56
2021/06/20 07:30:39;;;;;;;6.85;3.78;;;;;;;;;;3580610;40;20041;-54
2021/06/20 07:33:04;;;;;;;8.00;5.13;;;;;;;;;;3572940;40;20029;-52
2021/06/20 07:35:30;;;;;;;6.78;4.80;;;;;;;;;;3572263;40;20365;-53
2021/06/20 07:37:56;;;;;;;10.60;4.22;;;;;;;;;;3580343;40;20319;-55
2021/06/20 07:40:21;;;;;;;6.53;4.05;;;;;;;;;;3580920;40;20060;-54
2021/06/20 07:42:47;;;;;;;7.78;4.35;;;;;;;;;;3579223;40;20037;-56
2021/06/20 07:45:15;;;;;;;7.93;5.50;;;;;;;;;;3579915;40;20049;-56
2021/06/20 07:47:41;;;;;;;5.63;4.10;;;;;;;;;;3581544;40;20137;-54
2021/06/20 07:50:09;;;;;;;5.85;4.13;;;;;;;;;;3580399;40;20056;-56
2021/06/20 07:52:35;;;;;;;13.63;5.38;;;;;;;;;;3579417;40;20061;-55
2021/06/20 07:55:02;;;;;;;10.23;6.82;;;;;;;;;;3571304;40;20052;-56
2021/06/20 07:57:28;;;;;;;9.13;3.90;;;;;;;;;;3578584;40;20114;-54
2021/06/20 07:59:53;;;;;;;11.50;4.82;;;;;;;;;;3572992;40;20434;-55
2021/06/20 08:02:19;;;;;;;7.28;4.22;;;;;;;;;;3581744;40;20048;-54
2021/06/20 08:04:45;;;;;;;5.90;3.83;;;;;;;;;;3582272;40;20117;-54
2021/06/20 08:07:11;;;;;;;7.32;3.20;;;;;;;;;;3582166;40;20580;-54
2021/06/20 08:09:36;;;;;;;7.38;4.50;;;;;;;;;;3580640;40;20055;-54
2021/06/20 08:12:03;;;;;;;9.82;5.72;;;;;;;;;;3579143;40;20454;-55
2021/06/20 08:14:30;;;;;;;8.10;4.40;;;;;;;;;;3582443;40;20544;-54
2021/06/20 08:16:56;;;;;;;12.07;3.83;;;;;;;;;;3581171;40;20387;-57
2021/06/20 08:19:22;;;;;;;5.93;3.80;;;;;;;;;;3580856;40;20064;-50
2021/06/20 08:21:47;;;;;;;9.40;6.00;;;;;;;;;;3582017;40;20032;-54
2021/06/20 08:24:14;;;;;;;8.88;4.00;;;;;;;;;;3581425;40;20501;-56
2021/06/20 08:26:40;;;;;;;8.70;3.75;;;;;;;;;;3572579;40;20054;-57
2021/06/20 08:29:06;;;;;;;9.20;3.97;;;;;;;;;;3580551;40;20376;-57
2021/06/20 08:31:32;;;;;;;6.60;3.67;;;;;;;;;;3581540;40;20045;-57
2021/06/20 08:33:59;;;;;;;9.05;4.20;;;;;;;;;;3581903;40;20352;-56
2021/06/20 08:36:24;;;;;;;9.68;3.83;;;;;;;;;;3583233;40;20073;-55
2021/06/20 08:38:50;;;;;;;10.68;3.80;;;;;;;;;;3582891;40;20028;-56
2021/06/20 08:41:16;;;;;;;5.03;3.70;;;;;;;;;;3572498;40;20399;-56
2021/06/20 08:43:42;;;;;;;6.10;3.20;;;;;;;;;;3580933;40;20025;-57
2021/06/20 08:46:09;;;;;;;6.53;3.88;;;;;;;;;;3583136;40;20253;-55
2021/06/20 08:48:36;;;;;;;7.43;4.13;;;;;;;;;;3581979;40;20033;-56
2021/06/20 08:51:01;;;;;;;7.22;3.70;;;;;;;;;;3581936;40;20040;-57
2021/06/20 08:53:27;;;;;;;6.55;3.85;;;;;;;;;;3584015;40;20064;-58
2021/06/20 08:55:52;;;;;;;7.45;4.20;;;;;;;;;;3581118;40;20368;-57
2021/06/20 08:58:34;;;;;;;6.60;3.95;;;;;;;;;;3581475;40;20134;-56
2021/06/20 09:01:01;;;;;;;10.43;4.00;;;;;;;;;;3582111;40;20048;-58
2021/06/20 09:03:41;;;;;;;6.45;3.78;;;;;;;;;;3582343;40;20052;-58
2021/06/20 09:06:17;;;;;;;;;;;;;;;;;;3565563;40;20033;-58
2021/06/20 09:08:52;;;;;;;6.32;4.03;;;;;;;;;;3581262;40;20013;-58
2021/06/20 09:11:31;;;;;;;6.55;3.70;;;;;;;;;;3580970;40;20044;-55
2021/06/20 09:14:04;;;;;;;8.60;3.80;;;;;;;;;;3581884;40;20048;-59
2021/06/20 09:16:31;;;;;;;5.30;3.90;;;;;;;;;;3579932;40;20039;-57
2021/06/20 09:18:57;;;;;;;7.05;4.20;;;;;;;;;;3580989;40;20053;-57
2021/06/20 09:21:26;;;;;;;8.57;4.03;;;;;;;;;;3571634;40;20039;-57
2021/06/20 09:23:57;;;;;;;7.47;3.25;;;;;;;;;;3571587;40;20039;-54
2021/06/20 09:26:41;;;;;;;12.23;4.10;;;;;;;;;;3579863;40;20041;-56
2021/06/20 09:29:09;;;;;;;8.05;4.28;;;;;;;;;;3579937;40;20381;-58
2021/06/20 09:31:49;;;;;;;12.30;4.22;;;;;;;;;;3581073;40;20117;-57
2021/06/20 09:34:14;;;;;;;;;;;;;;;;;;3579902;40;20068;-57
2021/06/20 09:36:40;;;;;;;5.75;3.65;;;;;;;;;;3574491;40;20257;-58
2021/06/20 09:39:20;;;;;;;6.03;4.07;;;;;;;;;;3581723;40;20825;-57
2021/06/20 09:42:09;;;;;;;11.23;4.70;;;;;;;;;;3581138;40;20044;-57
2021/06/20 09:44:49;;;;;;;10.20;3.60;;;;;;;;;;3580482;40;20044;-56
2021/06/20 09:47:18;;;;;;;6.15;3.65;;;;;;;;;;3580341;40;20270;-58
2021/06/20 09:49:46;;;;;;;6.05;3.47;;;;;;;;;;3572998;40;20032;-58
2021/06/20 09:52:11;;;;;;;5.88;3.33;;;;;;;;;;3580209;40;20081;-58
2021/06/20 09:54:51;;;;;;;7.85;3.40;;;;;;;;;;3582926;40;20481;-57
2021/06/20 09:57:17;;;;;;;5.25;3.58;;;;;;;;;;3578982;40;20138;-57
2021/06/20 10:00:04;;;;;;;8.48;3.83;;;;;;;;;;3579710;40;20036;-57
2021/06/20 10:02:31;;;;;;;7.10;3.75;;;;;;;;;;3579863;40;20141;-56
2021/06/20 10:04:57;;;;;;;8.35;3.83;;;;;;;;;;3580885;40;20037;-57
2021/06/20 10:07:28;;;;;;;7.57;3.60;;;;;;;;;;3579704;40;20040;-57
2021/06/20 10:09:55;;;;;;;5.80;3.20;;;;;;;;;;3575509;40;20033;-58
2021/06/20 10:12:22;;;;;;;5.50;3.03;;;;;;;;;;3582286;40;20502;-58
2021/06/20 10:14:49;;;;;;;5.05;3.50;;;;;;;;;;3582276;40;20037;-58
2021/06/20 10:17:44;;;;;;;5.93;3.33;;;;;;;;;;3579680;40;20368;-54
2021/06/20 10:20:13;;;;;;;5.93;3.40;;;;;;;;;;3580010;40;20296;-56
2021/06/20 10:22:42;;;;;;;6.63;3.20;;;;;;;;;;3580590;40;20044;-57
2021/06/20 10:25:10;;;;;;;7.60;3.47;;;;;;;;;;3579036;40;20032;-57
2021/06/20 10:27:44;;;;;;;6.78;3.40;;;;;;;;;;3573239;40;20060;-58
2021/06/20 10:30:22;;;;;;;9.02;3.17;;;;;;;;;;3579754;40;20101;-57
2021/06/20 10:32:51;;;;;;;5.85;3.72;;;;;;;;;;3581370;40;20045;-57
2021/06/20 10:35:23;;;;;;;6.90;3.67;;;;;;;;;;3580897;40;20025;-57
2021/06/20 10:37:51;;;;;;;7.55;3.50;;;;;;;;;;3580982;40;20032;-58
2021/06/20 10:40:29;;;;;;;12.75;6.75;;;;;;;;;;3580570;40;20045;-57
2021/06/20 10:42:57;;;;;;;7.90;5.95;;;;;;;;;;3581586;40;20301;-57
2021/06/20 10:45:34;;;;;;;8.27;3.92;;;;;;;;;;3581701;40;20059;-57
2021/06/20 10:48:15;;;;;;;8.02;3.85;;;;;;;;;;3580648;40;20376;-57
2021/06/20 10:50:42;;;;;;;7.30;3.65;;;;;;;;;;3580938;40;20408;-56
2021/06/20 10:53:08;;;;;;;7.53;4.40;;;;;;;;;;3581387;40;20052;-57
2021/06/20 10:55:57;;;;;;;5.72;3.65;;;;;;;;;;3580748;40;20045;-57
2021/06/20 10:58:29;;;;;;;7.88;3.40;;;;;;;;;;3580744;40;20099;-57
2021/06/20 11:01:12;;;;;;;6.20;3.42;;;;;;;;;;3575339;40;20468;-58
2021/06/20 11:03:39;;;;;;;6.50;3.25;;;;;;;;;;3581641;40;20063;-57
2021/06/20 11:06:04;;;;;;;6.32;3.58;;;;;;;;;;3580034;40;20057;-55
2021/06/20 11:08:30;;;;;;;7.72;3.83;;;;;;;;;;3581550;40;20070;-58
2021/06/20 11:11:04;;;;;;;7.47;3.83;;;;;;;;;;3579555;40;20621;-57
2021/06/20 11:13:30;;;;;;;6.35;3.47;;;;;;;;;;3580036;40;20040;-58
2021/06/20 11:16:11;;;;;;;8.25;3.10;;;;;;;;;;3580237;40;20063;-56
2021/06/20 11:18:36;;;;;;;6.85;3.67;;;;;;;;;;3581690;40;20053;-57
2021/06/20 11:21:02;;;;;;;9.85;3.35;;;;;;;;;;3581564;40;20044;-56
2021/06/20 11:23:31;;;;;;;6.93;2.75;;;;;;;;;;3579039;40;20454;-57
2021/06/20 11:26:02;;;;;;;10.07;4.18;;;;;;;;;;3580191;40;20081;-56
2021/06/20 11:28:29;;;;;;;8.38;2.90;;;;;;;;;;3579514;40;20108;-58
2021/06/20 11:31:09;;;;;;;5.55;2.85;;;;;;;;;;3579354;40;20084;-57
2021/06/20 11:33:35;;;;;;;8.70;3.15;;;;;;;;;;3581869;40;20260;-57
2021/06/20 11:36:01;;;;;;;7.43;3.63;;;;;;;;;;3572048;40;20033;-58
2021/06/20 11:38:39;;;;;;;7.40;2.97;;;;;;;;;;3581963;40;20142;-57
2021/06/20 11:41:24;;;;;;;8.05;3.47;;;;;;;;;;3581570;40;20052;-57
2021/06/20 11:44:02;;;;;;;7.57;2.88;;;;;;;;;;3582799;40;20117;-58
2021/06/20 11:46:32;;;;;;;6.88;3.55;;;;;;;;;;3579694;40;20048;-58
2021/06/20 11:49:01;;;;;;;4.90;2.42;;;;;;;;;;3580927;40;20032;-58
2021/06/20 11:51:34;;;;;;;4.95;3.15;;;;;;;;;;3580621;40;20036;-58
2021/06/20 11:54:10;;;;;;;5.25;2.95;;;;;;;;;;3581888;40;20169;-58
2021/06/20 11:56:38;;;;;;;11.18;3.13;;;;;;;;;;3582106;40;20052;-58
2021/06/20 11:59:04;;;;;;;7.97;3.00;;;;;;;;;;3582037;40;20033;-58
2021/06/20 12:01:49;;;;;;;6.25;2.50;;;;;;;;;;3572376;40;20040;-57
2021/06/20 12:04:22;;;;;;;8.43;3.60;;;;;;;;;;3573817;40;20372;-57
2021/06/20 12:06:48;;;;;;;8.68;2.88;;;;;;;;;;3582915;40;20129;-58
2021/06/20 12:09:14;;;;;;;5.65;2.70;;;;;;;;;;3581777;40;20021;-58
2021/06/20 12:11:40;;;;;;;6.30;2.33;;;;;;;;;;3582240;40;20565;-57
2021/06/20 12:14:07;;;;;;;7.80;2.83;;;;;;;;;;3582196;40;20145;-58
2021/06/20 12:16:43;;;;;;;5.57;2.55;;;;;;;;;;3581360;40;20276;-58
2021/06/20 12:19:14;;;;;;;4.25;2.15;;;;;;;;;;3582705;40;20041;-57
2021/06/20 12:21:39;;;;;;;4.95;2.53;;;;;;;;;;3583208;40;20045;-58
2021/06/20 12:24:07;;;;;;;10.10;2.97;;;;;;;;;;3580609;40;20029;-58
2021/06/20 12:26:33;;;;;;;5.82;2.63;;;;;;;;;;3581530;40;20351;-58
2021/06/20 12:28:59;;;;;;;6.03;2.72;;;;;;;;;;3581594;40;20046;-58
2021/06/20 12:31:25;;;;;;;6.85;3.00;;;;;;;;;;3582375;40;20037;-59
2021/06/20 12:34:02;;;;;;;6.93;2.75;;;;;;;;;;3582131;40;20377;-58
2021/06/20 12:36:30;;;;;;;5.15;2.38;;;;;;;;;;3580350;40;20034;-57
2021/06/20 12:38:58;;;;;;;7.57;2.75;;;;;;;;;;3581693;40;20095;-57
2021/06/20 12:41:26;;;;;;;5.75;2.63;;;;;;;;;;3580632;40;20156;-57
2021/06/20 12:44:04;;;;;;;5.88;3.03;;;;;;;;;;3581946;40;20115;-58
2021/06/20 12:46:34;;;;;;;6.20;2.78;;;;;;;;;;3580077;40;20110;-58
2021/06/20 12:49:11;;;;;;;8.50;2.78;;;;;;;;;;3570972;40;20032;-58
2021/06/20 12:51:43;;;;;;;9.25;2.75;;;;;;;;;;3580709;40;20045;-58
2021/06/20 12:54:10;;;;;;;6.50;2.83;;;;;;;;;;3580384;40;20052;-58
2021/06/20 12:56:38;;;;;;;12.57;3.35;;;;;;;;;;3582091;40;20049;-56
2021/06/20 12:59:10;;;;;;;4.63;2.17;;;;;;;;;;3572759;40;20048;-58
2021/06/20 13:01:37;;;;;;;7.13;2.30;;;;;;;;;;3580550;40;20033;-58
2021/06/20 13:04:15;;;;;;;5.47;2.60;;;;;;;;;;3580426;40;20623;-58
2021/06/20 13:06:42;;;;;;;4.75;2.50;;;;;;;;;;3581761;40;20158;-56
2021/06/20 13:09:08;;;;;;;4.90;2.25;;;;;;;;;;3581580;40;20033;-58
2021/06/20 13:11:35;;;;;;;6.90;2.30;;;;;;;;;;3581415;40;20044;-57
2021/06/20 13:14:18;;;;;;;9.57;2.50;;;;;;;;;;3581272;40;20537;-58
2021/06/20 13:16:46;;;;;;;5.57;2.67;;;;;;;;;;3575831;40;20048;-58
2021/06/20 13:19:13;;;;;;;5.35;2.78;;;;;;;;;;3572655;40;20049;-58
2021/06/20 13:21:39;;;;;;;6.75;2.50;;;;;;;;;;3562818;40;20041;-59
2021/06/20 13:24:09;;;;;;;4.88;2.25;;;;;;;;;;3581059;40;20256;-59
2021/06/20 13:26:35;;;;;;;6.47;2.33;;;;;;;;;;3579714;40;20062;-57
2021/06/20 13:29:01;;;;;;;4.10;2.40;;;;;;;;;;3582207;40;20049;-58
2021/06/20 13:31:26;;;;;;;4.60;2.42;;;;;;;;;;3580607;40;20603;-58
2021/06/20 13:33:55;;;;;;;6.53;2.40;;;;;;;;;;3581013;40;20068;-58
2021/06/20 13:36:21;;;;;;;6.70;2.72;;;;;;;;;;3581059;40;20051;-57
2021/06/20 13:38:47;;;;;;;6.28;2.85;;;;;;;;;;3582098;40;20044;-58
2021/06/20 13:41:12;;;;;;;9.00;3.00;;;;;;;;;;3581295;40;20253;-58
2021/06/20 13:43:38;;;;;;;5.13;2.78;;;;;;;;;;3582893;40;20044;-57
2021/06/20 13:46:03;;;;;;;6.60;3.17;;;;;;;;;;3583563;40;20033;-58
2021/06/20 13:48:29;;;;;;;6.95;2.28;;;;;;;;;;3581784;40;20383;-58
2021/06/20 13:50:54;;;;;;;6.10;2.47;;;;;;;;;;3580819;40;20034;-58
2021/06/20 13:53:20;;;;;;;8.82;4.90;;;;;;;;;;3575681;40;20032;-58
2021/06/20 13:55:45;;;;;;;8.55;2.85;;;;;;;;;;3580201;40;20113;-58
2021/06/20 13:58:13;;;;;;;4.18;1.98;;;;;;;;;;3582584;40;20103;-58
2021/06/20 14:00:38;;;;;;;7.65;3.35;;;;;;;;;;3581483;40;20052;-58
2021/06/20 14:03:04;;;;;;;7.15;2.65;;;;;;;;;;3582748;40;20044;-59
2021/06/20 14:05:29;;;;;;;7.82;2.40;;;;;;;;;;3581384;40;21310;-58
2021/06/20 14:07:55;;;;;;;9.10;2.60;;;;;;;;;;3580519;40;20052;-57
2021/06/20 14:10:20;;;;;;;4.55;2.20;;;;;;;;;;3581732;40;20056;-58
2021/06/20 14:12:45;;;;;;;4.43;2.17;;;;;;;;;;3581069;40;20414;-59
2021/06/20 14:15:11;;;;;;;5.05;2.70;;;;;;;;;;3581263;40;20033;-58
2021/06/20 14:17:37;;;;;;;6.43;2.50;;;;;;;;;;3581089;40;20304;-59
2021/06/20 14:20:04;;;;;;;6.93;2.53;;;;;;;;;;3579739;40;20326;-58
2021/06/20 14:22:30;;;;;;;8.85;2.40;;;;;;;;;;3580615;40;20024;-58
2021/06/20 14:24:56;;;;;;;4.63;2.60;;;;;;;;;;3580897;40;20142;-58
2021/06/20 14:27:21;;;;;;;6.55;2.28;;;;;;;;;;3580559;40;20633;-57
2021/06/20 14:29:47;;;;;;;4.85;2.47;;;;;;;;;;3582644;40;20029;-58
2021/06/20 14:32:13;;;;;;;3.38;2.00;;;;;;;;;;3579807;40;20335;-58
2021/06/20 14:34:38;;;;;;;4.88;2.30;;;;;;;;;;3580676;40;20052;-59
2021/06/20 14:37:04;;;;;;;5.93;1.63;;;;;;;;;;3581652;40;20041;-58
2021/06/20 14:39:29;;;;;;;5.53;1.75;;;;;;;;;;3580894;40;20662;-58